Kezdőlap
METAR-TAF:

METAR-TAF

Repülőterek :

Perry Lefors Field

Pampa, Texas, Amerikai Egyesült Államok

földrajzi szélesség: 35-36-46N, földrajzi hosszúság: 100-59-46W, magasság: 989 m

Jelenlegi meteorológiai megfigyelések

A jelentés 24 perccel ezelõtt készült, 15:15 UTC
Déli szél 25 kt széllökések: 31 kt
Hőmérséklet 26°C
Páratartalom 74%
Légköri nyomás 1008 hPa
Látótávolság: 16.1 km
Borult 1900 lábon

METAR: KPPA 181515Z AUTO 17025G31KT 10SM OVC019 26/21 A2978 RMK AO2 T02570208

Idő: 10:39 (15:39 UTC)


TAF: hiányzik

Meteorológiai megfigyelések és előrejelzések több, mint 4000 repülőtéren (METAR és TAF jelentéseket).

A térképen piros és sárga pontok jelzik az elérhető meteorológiai állomásokat.

Mozgassa az egeret a pont fölött, hogy megjelenjen az állomás neve.

Azután kattintson az időjárási megfigyelések és előrejelzések megtekintéséhez.

A térkép megváltoztatása: kattintson a fekete keresztel jelölt zöld gombra ráközelítéshez, a vonallal jelölt zöld gombra távolításhoz, vagy a zöld nyilakra a szomszédos térképek eléréséhez.


METAR-TAF: